createdAt,value
2022-11-18T00:01:05.462Z,9.17
2022-11-18T00:03:31.899Z,5.13
2022-11-18T00:05:58.409Z,4.53
2022-11-18T00:08:25.855Z,3.80
2022-11-18T00:10:52.573Z,6.80
2022-11-18T00:13:37.360Z,3.73
2022-11-18T00:16:08.782Z,4.07
2022-11-18T00:18:35.796Z,5.00
2022-11-18T00:21:10.563Z,7.40
2022-11-18T00:23:37.566Z,6.67
2022-11-18T00:26:12.857Z,6.90
2022-11-18T00:28:40.155Z,6.70
2022-11-18T00:31:08.856Z,4.90
2022-11-18T00:33:36.915Z,4.30
2022-11-18T00:36:09.370Z,7.90
2022-11-18T00:38:35.935Z,13.40
2022-11-18T00:41:03.808Z,5.67
2022-11-18T00:43:30.407Z,4.23
2022-11-18T00:45:57.546Z,4.97
2022-11-18T00:48:24.290Z,6.30
2022-11-18T00:50:52.079Z,2.90
2022-11-18T00:53:20.142Z,2.53
2022-11-18T00:55:46.960Z,9.13
2022-11-18T00:58:16.435Z,4.83
2022-11-18T01:00:48.622Z,5.97
2022-11-18T01:03:15.840Z,4.20
2022-11-18T01:05:42.519Z,3.23
2022-11-18T01:08:10.174Z,3.77
2022-11-18T01:10:37.511Z,5.47
2022-11-18T01:13:20.175Z,5.23
2022-11-18T01:15:54.955Z,4.10
2022-11-18T01:18:24.252Z,3.53
2022-11-18T01:20:51.019Z,3.20
2022-11-18T01:23:19.066Z,6.07
2022-11-18T01:25:46.758Z,3.43
2022-11-18T01:28:15.480Z,3.40
2022-11-18T01:30:44.275Z,6.60
2022-11-18T01:33:10.775Z,4.13
2022-11-18T01:35:44.207Z,4.67
2022-11-18T01:38:12.368Z,3.10
2022-11-18T01:40:39.615Z,4.57
2022-11-18T01:43:11.965Z,6.97
2022-11-18T01:45:39.219Z,4.13
2022-11-18T01:48:28.980Z,5.83
2022-11-18T01:50:59.362Z,8.60
2022-11-18T01:53:28.240Z,3.10
2022-11-18T01:55:56.664Z,2.50
2022-11-18T01:58:37.915Z,4.07
2022-11-18T02:01:05.814Z,6.20
2022-11-18T02:03:33.333Z,4.73
2022-11-18T02:06:00.706Z,5.83
2022-11-18T02:08:28.430Z,6.60
2022-11-18T02:10:54.956Z,4.10
2022-11-18T02:13:22.089Z,4.07
2022-11-18T02:16:01.145Z,3.33
2022-11-18T02:18:55.214Z,5.40
2022-11-18T02:21:48.750Z,4.30
2022-11-18T02:24:27.832Z,3.70
2022-11-18T02:27:29.640Z,3.23
2022-11-18T02:29:59.718Z,6.27
2022-11-18T02:32:48.437Z,4.30
2022-11-18T02:35:24.261Z,5.27
2022-11-18T02:37:55.245Z,3.07
2022-11-18T02:40:25.958Z,4.50
2022-11-18T02:42:56.684Z,4.53
2022-11-18T02:45:23.689Z,4.60
2022-11-18T02:47:50.846Z,4.20
2022-11-18T02:50:21.365Z,5.23
2022-11-18T02:52:53.411Z,3.30
2022-11-18T02:55:20.451Z,7.07
2022-11-18T02:57:47.810Z,2.13
2022-11-18T03:00:14.988Z,3.10
2022-11-18T03:02:49.829Z,2.53
2022-11-18T03:05:26.268Z,7.30
2022-11-18T03:07:57.953Z,3.13
2022-11-18T03:10:25.968Z,2.90
2022-11-18T03:13:09.223Z,2.73
2022-11-18T03:15:53.807Z,4.00
2022-11-18T03:18:27.913Z,2.53
2022-11-18T03:21:10.466Z,3.80
2022-11-18T03:23:45.600Z,2.40
2022-11-18T03:26:17.869Z,3.33
2022-11-18T03:29:10.966Z,8.20
2022-11-18T03:31:40.915Z,6.23
2022-11-18T03:34:19.258Z,2.67
2022-11-18T03:36:51.746Z,6.57
2022-11-18T03:39:20.549Z,6.13
2022-11-18T03:41:51.694Z,5.80
2022-11-18T03:44:23.272Z,4.53
2022-11-18T03:46:54.939Z,4.47
2022-11-18T03:49:30.339Z,7.33
2022-11-18T03:52:03.355Z,6.53
2022-11-18T03:54:31.636Z,4.67
2022-11-18T03:57:00.641Z,6.00
2022-11-18T03:59:38.742Z,5.73
2022-11-18T04:02:15.043Z,4.20
2022-11-18T04:04:42.364Z,7.60
2022-11-18T04:10:00.277Z,6.90
2022-11-18T04:12:28.250Z,9.87
2022-11-18T04:14:55.529Z,8.77
2022-11-18T04:17:24.158Z,9.07
2022-11-18T04:19:51.146Z,7.90
2022-11-18T04:22:19.250Z,9.73
2022-11-18T04:24:45.950Z,9.10
2022-11-18T04:27:12.966Z,14.23
2022-11-18T04:29:39.602Z,6.67
2022-11-18T04:32:06.226Z,8.30
2022-11-18T04:34:32.710Z,9.07
2022-11-18T04:36:59.425Z,5.80
2022-11-18T04:39:25.932Z,12.90
2022-11-18T04:41:55.452Z,3.77
2022-11-18T04:44:26.679Z,8.40
2022-11-18T04:46:54.041Z,7.00
2022-11-18T04:49:20.877Z,4.27
2022-11-18T04:51:48.187Z,7.63
2022-11-18T04:54:15.354Z,6.57
2022-11-18T04:56:47.513Z,6.50
2022-11-18T04:59:18.020Z,5.90
2022-11-18T05:01:45.186Z,8.60
2022-11-18T05:04:14.344Z,12.53
2022-11-18T05:06:41.066Z,8.93
2022-11-18T05:09:07.872Z,10.20
2022-11-18T05:11:53.162Z,10.67
2022-11-18T05:14:19.822Z,7.27
2022-11-18T05:16:46.363Z,10.43
2022-11-18T05:19:13.000Z,9.70
2022-11-18T05:21:39.926Z,6.30
2022-11-18T05:24:06.765Z,8.67
2022-11-18T05:26:33.581Z,5.10
2022-11-18T05:29:00.219Z,5.30
2022-11-18T05:31:26.794Z,8.67
2022-11-18T05:33:53.365Z,5.37
2022-11-18T05:36:21.017Z,6.13
2022-11-18T05:38:47.811Z,6.20
2022-11-18T05:41:34.284Z,7.30
2022-11-18T05:44:01.518Z,6.87
2022-11-18T05:46:28.663Z,9.83
2022-11-18T05:48:55.411Z,6.90
2022-11-18T05:51:22.033Z,8.37
2022-11-18T05:53:49.626Z,8.90
2022-11-18T05:56:20.672Z,5.03
2022-11-18T05:58:47.405Z,6.87
2022-11-18T06:01:18.279Z,7.40
2022-11-18T06:03:44.929Z,5.70
2022-11-18T06:06:13.431Z,7.20
2022-11-18T06:08:46.463Z,7.60
2022-11-18T06:11:15.879Z,6.37
2022-11-18T06:13:50.396Z,7.20
2022-11-18T06:16:20.739Z,10.20
2022-11-18T06:18:47.280Z,8.93
2022-11-18T06:21:23.859Z,5.50
2022-11-18T06:23:50.634Z,7.47
2022-11-18T06:26:17.505Z,7.40
2022-11-18T06:28:45.638Z,4.50
2022-11-18T06:31:12.811Z,7.03
2022-11-18T06:33:39.453Z,4.97
2022-11-18T06:36:06.319Z,8.60
2022-11-18T06:38:34.397Z,6.90
2022-11-18T06:41:01.984Z,6.17
2022-11-18T06:43:44.035Z,4.73
2022-11-18T06:46:32.278Z,5.50
2022-11-18T06:48:59.226Z,4.23
2022-11-18T06:51:26.703Z,7.80
2022-11-18T06:53:53.789Z,4.33
2022-11-18T06:56:21.611Z,6.30
2022-11-18T06:58:48.302Z,4.27
2022-11-18T07:01:21.756Z,10.77
2022-11-18T07:03:48.685Z,7.40
2022-11-18T07:06:18.208Z,5.70
2022-11-18T07:08:47.799Z,9.50
2022-11-18T07:11:16.771Z,7.17
2022-11-18T07:13:44.140Z,7.80
2022-11-18T07:16:18.917Z,8.40
2022-11-18T07:18:46.789Z,12.93
2022-11-18T07:21:15.387Z,16.37
2022-11-18T07:23:42.210Z,9.97
2022-11-18T07:26:09.048Z,11.47
2022-11-18T07:28:36.214Z,17.50
2022-11-18T07:31:10.941Z,10.80
2022-11-18T07:33:38.211Z,12.80
2022-11-18T07:36:10.393Z,10.60
2022-11-18T07:38:37.106Z,12.53
2022-11-18T07:41:18.003Z,10.47
2022-11-18T07:43:46.220Z,10.17
2022-11-18T07:46:13.896Z,8.43
2022-11-18T07:48:41.684Z,8.93
2022-11-18T07:51:08.760Z,10.03
2022-11-18T07:53:36.302Z,13.23
2022-11-18T07:56:03.782Z,13.07
2022-11-18T07:58:30.675Z,15.77
2022-11-18T08:00:57.693Z,28.17
2022-11-18T08:03:28.019Z,18.47
2022-11-18T08:05:59.769Z,10.07
2022-11-18T08:08:26.769Z,11.87
2022-11-18T08:10:57.446Z,8.80
2022-11-18T08:13:25.212Z,6.67
2022-11-18T08:15:52.213Z,10.30
2022-11-18T08:18:18.926Z,9.57
2022-11-18T08:20:45.614Z,12.77
2022-11-18T08:23:12.809Z,10.87
2022-11-18T08:25:40.549Z,12.17
2022-11-18T08:28:07.501Z,7.87
2022-11-18T08:30:34.955Z,10.77
2022-11-18T08:33:01.787Z,13.83
2022-11-18T08:35:29.862Z,7.40
2022-11-18T08:37:56.433Z,8.30
2022-11-18T08:40:23.165Z,8.80
2022-11-18T08:42:49.681Z,7.30
2022-11-18T08:45:16.457Z,6.63
2022-11-18T08:47:42.911Z,7.20
2022-11-18T08:50:11.288Z,10.03
2022-11-18T08:52:38.380Z,9.60
2022-11-18T08:55:05.163Z,7.07
2022-11-18T08:57:31.686Z,6.67
2022-11-18T08:59:58.261Z,7.30
2022-11-18T09:02:24.822Z,14.33
2022-11-18T09:04:51.941Z,11.20
2022-11-18T09:07:19.926Z,12.70
2022-11-18T09:09:46.461Z,12.00
2022-11-18T09:12:15.059Z,14.50
2022-11-18T09:17:29.712Z,15.13
2022-11-18T09:19:56.147Z,16.47
2022-11-18T09:22:22.660Z,13.13
2022-11-18T09:24:49.675Z,12.20
2022-11-18T09:27:17.564Z,12.50
2022-11-18T09:29:45.049Z,12.83
2022-11-18T09:32:11.814Z,13.20
2022-11-18T09:34:38.352Z,15.83
2022-11-18T09:37:06.507Z,14.80
2022-11-18T09:39:37.083Z,12.07
2022-11-18T09:42:26.473Z,16.77
2022-11-18T09:45:24.732Z,12.93
2022-11-18T09:47:51.925Z,9.83
2022-11-18T09:53:16.222Z,27.13
2022-11-18T09:55:42.880Z,13.43
2022-11-18T09:58:15.749Z,13.83
2022-11-18T10:00:42.455Z,9.90
2022-11-18T10:03:35.618Z,9.63
2022-11-18T10:06:23.858Z,9.93
2022-11-18T10:09:02.791Z,10.10
2022-11-18T10:11:40.223Z,9.27
2022-11-18T10:14:08.099Z,14.80
2022-11-18T10:17:04.071Z,8.80
2022-11-18T10:19:33.400Z,7.83
2022-11-18T10:22:23.794Z,8.33
2022-11-18T10:24:56.259Z,8.73
2022-11-18T10:27:35.092Z,8.20
2022-11-18T10:30:01.726Z,8.83
2022-11-18T10:32:28.439Z,9.60
2022-11-18T10:34:57.384Z,8.67
2022-11-18T10:37:45.350Z,7.07
2022-11-18T10:40:27.213Z,6.93
2022-11-18T10:42:53.757Z,8.07
2022-11-18T10:45:23.345Z,5.87
2022-11-18T10:48:09.955Z,10.50
2022-11-18T10:50:41.865Z,8.43
2022-11-18T10:53:33.943Z,11.73
2022-11-18T10:56:06.298Z,6.90
2022-11-18T10:58:37.503Z,7.50
2022-11-18T11:01:08.931Z,8.40
2022-11-18T11:03:38.156Z,7.17
2022-11-18T11:06:26.917Z,7.10
2022-11-18T11:08:54.447Z,8.53
2022-11-18T11:11:31.615Z,8.00
2022-11-18T11:14:19.516Z,7.10
2022-11-18T11:16:59.329Z,7.50
2022-11-18T11:19:41.940Z,11.77
2022-11-18T11:22:10.379Z,8.23
2022-11-18T11:24:36.880Z,8.87
2022-11-18T11:30:21.240Z,10.80
2022-11-18T11:33:06.004Z,10.03
2022-11-18T11:35:44.272Z,6.73
2022-11-18T11:38:46.244Z,10.03
2022-11-18T11:41:20.792Z,9.53
2022-11-18T11:44:24.665Z,11.77
2022-11-18T11:47:22.903Z,9.40
2022-11-18T11:49:52.473Z,14.90
2022-11-18T11:52:29.700Z,13.00
2022-11-18T11:54:56.134Z,8.47
2022-11-18T11:57:47.125Z,9.13
2022-11-18T12:00:15.330Z,7.93
2022-11-18T12:03:19.503Z,7.10
2022-11-18T12:05:46.206Z,10.77
2022-11-18T12:08:13.516Z,11.97
2022-11-18T12:10:54.033Z,9.73
2022-11-18T12:13:48.484Z,8.50
2022-11-18T12:16:18.844Z,8.97
2022-11-18T12:18:58.090Z,6.63
2022-11-18T12:21:46.500Z,8.43
2022-11-18T12:24:27.273Z,7.37
2022-11-18T12:26:53.742Z,8.50
2022-11-18T12:29:20.496Z,7.80
2022-11-18T12:31:49.068Z,9.07
2022-11-18T12:34:20.477Z,10.30
2022-11-18T12:36:47.389Z,8.97
2022-11-18T12:39:26.182Z,11.57
2022-11-18T12:42:17.868Z,12.53
2022-11-18T12:44:52.267Z,8.77
2022-11-18T12:47:37.128Z,8.00
2022-11-18T12:50:10.804Z,8.10
2022-11-18T12:52:37.224Z,9.90
2022-11-18T12:55:05.086Z,8.47
2022-11-18T12:57:34.945Z,12.30
2022-11-18T13:00:28.549Z,8.00
2022-11-18T13:02:57.691Z,11.60
2022-11-18T13:05:25.351Z,11.00
2022-11-18T13:08:15.969Z,13.13
2022-11-18T13:11:16.891Z,8.83
2022-11-18T13:13:44.179Z,9.40
2022-11-18T13:16:44.565Z,9.70
2022-11-18T13:19:21.620Z,12.07
2022-11-18T13:22:12.837Z,10.27
2022-11-18T13:24:44.413Z,8.37
2022-11-18T13:27:37.214Z,10.33
2022-11-18T13:30:11.186Z,13.07
2022-11-18T13:32:43.571Z,9.00
2022-11-18T13:35:21.697Z,10.37
2022-11-18T13:37:54.312Z,11.13
2022-11-18T13:40:22.381Z,14.90
2022-11-18T13:42:49.014Z,11.67
2022-11-18T13:45:15.783Z,13.80
2022-11-18T13:47:47.833Z,13.80
2022-11-18T13:50:14.338Z,9.97
2022-11-18T13:52:44.397Z,13.27
2022-11-18T13:55:25.884Z,8.93
2022-11-18T13:57:59.136Z,17.47
2022-11-18T14:00:28.602Z,14.07
2022-11-18T14:03:04.355Z,20.67
2022-11-18T14:05:31.009Z,12.10
2022-11-18T14:08:04.974Z,12.50
2022-11-18T14:10:40.700Z,14.47
2022-11-18T14:13:17.418Z,16.03
2022-11-18T14:15:44.618Z,17.40
2022-11-18T14:18:40.156Z,41.73
2022-11-18T14:21:09.444Z,22.27
2022-11-18T14:23:37.009Z,17.60
2022-11-18T14:26:05.626Z,17.60
2022-11-18T14:28:34.152Z,21.57
2022-11-18T14:31:12.722Z,25.77
2022-11-18T14:33:39.547Z,26.83
2022-11-18T14:36:15.424Z,32.50
2022-11-18T14:41:47.478Z,26.93
2022-11-18T14:44:14.843Z,30.87
2022-11-18T14:46:43.449Z,27.43
2022-11-18T14:49:16.057Z,25.57
2022-11-18T14:51:42.985Z,27.03
2022-11-18T14:54:23.771Z,27.73
2022-11-18T14:56:54.738Z,29.17
2022-11-18T14:59:21.720Z,28.13
2022-11-18T15:01:48.453Z,29.73
2022-11-18T15:04:17.258Z,27.07
2022-11-18T15:06:44.023Z,27.87
2022-11-18T15:09:11.930Z,26.93
2022-11-18T15:11:38.543Z,33.77
2022-11-18T15:14:05.266Z,32.53
2022-11-18T15:16:34.549Z,31.47
2022-11-18T15:19:03.184Z,34.80
2022-11-18T15:21:29.976Z,31.10
2022-11-18T15:23:56.512Z,30.27
2022-11-18T15:26:43.230Z,28.80
2022-11-18T15:29:23.559Z,32.23
2022-11-18T15:31:50.482Z,32.07
2022-11-18T15:34:18.751Z,37.50
2022-11-18T15:36:46.003Z,27.90
2022-11-18T15:39:12.911Z,26.30
2022-11-18T15:41:40.729Z,28.73
2022-11-18T15:44:07.232Z,28.30
2022-11-18T15:46:33.773Z,26.80
2022-11-18T15:49:00.695Z,29.97
2022-11-18T15:51:28.854Z,21.70
2022-11-18T15:53:55.646Z,21.40
2022-11-18T15:56:30.243Z,20.57
2022-11-18T15:59:02.398Z,23.43
2022-11-18T16:01:31.955Z,22.67
2022-11-18T16:03:58.792Z,22.63
2022-11-18T16:06:25.810Z,19.13
2022-11-18T16:08:58.955Z,19.33
2022-11-18T16:11:46.121Z,18.83
2022-11-18T16:14:14.036Z,19.90
2022-11-18T16:16:42.022Z,15.43
2022-11-18T16:19:10.872Z,16.07
2022-11-18T16:21:39.310Z,15.47
2022-11-18T16:24:08.208Z,15.60
2022-11-18T16:26:35.268Z,19.47
2022-11-18T16:29:05.037Z,15.67
2022-11-18T16:31:40.912Z,18.00
2022-11-18T16:34:20.604Z,17.30
2022-11-18T16:36:49.547Z,15.47
2022-11-18T16:39:27.010Z,12.47
2022-11-18T16:42:03.859Z,10.10
2022-11-18T16:44:34.801Z,7.87
2022-11-18T16:47:01.618Z,7.60
2022-11-18T16:49:28.127Z,8.03
2022-11-18T16:51:55.950Z,10.87
2022-11-18T16:54:27.684Z,10.37
2022-11-18T16:56:55.521Z,12.17
2022-11-18T16:59:22.871Z,13.20
2022-11-18T17:01:50.752Z,13.77
2022-11-18T17:04:17.827Z,16.17
2022-11-18T17:06:46.185Z,12.23
2022-11-18T17:09:18.082Z,12.03
2022-11-18T17:11:45.055Z,14.97
2022-11-18T17:14:12.367Z,15.97
2022-11-18T17:16:39.060Z,16.40
2022-11-18T17:19:11.359Z,12.27
2022-11-18T17:21:44.289Z,14.47
2022-11-18T17:24:13.609Z,11.83
2022-11-18T17:26:40.402Z,12.37
2022-11-18T17:29:07.124Z,16.37
2022-11-18T17:31:33.972Z,16.40
2022-11-18T17:34:00.624Z,16.47
2022-11-18T17:36:27.425Z,10.87
2022-11-18T17:38:55.815Z,11.97
2022-11-18T17:41:43.446Z,14.87
2022-11-18T17:44:11.856Z,30.00
2022-11-18T17:46:38.895Z,13.07
2022-11-18T17:49:14.943Z,15.20
2022-11-18T17:51:41.728Z,16.50
2022-11-18T17:54:09.082Z,18.83
2022-11-18T17:56:35.854Z,13.30
2022-11-18T17:59:02.317Z,16.33
2022-11-18T18:01:28.876Z,14.53
2022-11-18T18:03:55.522Z,16.40
2022-11-18T18:06:22.773Z,18.50
2022-11-18T18:08:49.491Z,12.87
2022-11-18T18:11:17.836Z,12.20
2022-11-18T18:14:02.982Z,12.00
2022-11-18T18:16:31.378Z,11.43
2022-11-18T18:18:59.113Z,9.80
2022-11-18T18:21:26.185Z,11.53
2022-11-18T18:23:52.992Z,11.47
2022-11-18T18:26:19.807Z,11.73
2022-11-18T18:28:47.243Z,11.17
2022-11-18T18:31:15.437Z,12.00
2022-11-18T18:33:42.649Z,12.10
2022-11-18T18:36:12.949Z,8.90
2022-11-18T18:38:39.878Z,10.93
2022-11-18T18:41:10.098Z,11.63
2022-11-18T18:43:36.816Z,12.20
2022-11-18T18:46:24.544Z,12.40
2022-11-18T18:48:51.222Z,9.80
2022-11-18T18:51:18.574Z,9.73
2022-11-18T18:53:48.242Z,9.30
2022-11-18T18:56:15.361Z,8.70
2022-11-18T18:58:41.769Z,11.10
2022-11-18T19:01:13.634Z,7.13
2022-11-18T19:03:41.339Z,9.43
2022-11-18T19:06:50.086Z,9.40
2022-11-18T19:09:09.456Z,7.67
2022-11-18T19:11:55.546Z,7.07
2022-11-18T19:14:22.929Z,8.03
2022-11-18T19:16:50.408Z,7.97
2022-11-18T19:19:42.165Z,7.00
2022-11-18T19:22:10.310Z,6.00
2022-11-18T19:24:49.163Z,6.30
2022-11-18T19:27:19.916Z,4.97
2022-11-18T19:29:46.509Z,5.10
2022-11-18T19:32:13.601Z,6.00
2022-11-18T19:34:40.268Z,6.70
2022-11-18T19:37:06.783Z,7.63
2022-11-18T19:39:35.157Z,16.43
2022-11-18T19:42:01.638Z,9.23
2022-11-18T19:44:28.163Z,8.03
2022-11-18T19:46:54.675Z,7.93
2022-11-18T19:49:22.065Z,6.27
2022-11-18T19:51:48.967Z,5.57
2022-11-18T19:54:15.506Z,5.90
2022-11-18T19:56:42.062Z,6.50
2022-11-18T19:59:08.728Z,5.70
2022-11-18T20:01:35.321Z,4.90
2022-11-18T20:04:03.103Z,4.60
2022-11-18T20:06:29.711Z,5.20
2022-11-18T20:08:56.944Z,9.53
2022-11-18T20:11:24.746Z,5.13
2022-11-18T20:13:51.887Z,3.83
2022-11-18T20:16:24.095Z,4.03
2022-11-18T20:18:56.241Z,3.93
2022-11-18T20:21:23.783Z,3.97
2022-11-18T20:24:01.231Z,4.03
2022-11-18T20:26:31.767Z,4.10
2022-11-18T20:28:58.421Z,3.60
2022-11-18T20:31:26.262Z,4.10
2022-11-18T20:33:54.291Z,2.67
2022-11-18T20:36:23.106Z,3.20
2022-11-18T20:38:58.319Z,3.70
2022-11-18T20:41:25.940Z,4.07
2022-11-18T20:43:53.044Z,4.07
2022-11-18T20:46:21.823Z,3.47
2022-11-18T20:48:49.322Z,3.47
2022-11-18T20:51:23.535Z,4.13
2022-11-18T20:53:51.390Z,4.07
2022-11-18T20:56:20.360Z,4.00
2022-11-18T20:58:47.331Z,3.63
2022-11-18T21:01:19.726Z,3.90
2022-11-18T21:03:57.256Z,4.17
2022-11-18T21:06:26.301Z,3.70
2022-11-18T21:09:00.597Z,3.27
2022-11-18T21:11:27.617Z,3.57
2022-11-18T21:14:16.004Z,3.80
2022-11-18T21:16:45.611Z,2.83
2022-11-18T21:19:12.273Z,4.70
2022-11-18T21:21:44.970Z,4.17
2022-11-18T21:24:20.624Z,3.20
2022-11-18T21:26:48.570Z,3.70
2022-11-18T21:29:16.212Z,4.90
2022-11-18T21:31:43.636Z,3.33
2022-11-18T21:34:11.461Z,3.47
2022-11-18T21:36:44.311Z,3.80
2022-11-18T21:39:13.926Z,3.30
2022-11-18T21:41:40.632Z,3.77
2022-11-18T21:44:11.746Z,2.83
2022-11-18T21:46:40.298Z,3.63
2022-11-18T21:49:07.395Z,5.00
2022-11-18T21:51:34.702Z,3.40
2022-11-18T21:54:01.697Z,3.40
2022-11-18T21:56:33.246Z,3.07
2022-11-18T21:59:01.029Z,3.23
2022-11-18T22:01:30.227Z,3.07
2022-11-18T22:03:59.146Z,3.40
2022-11-18T22:06:29.575Z,3.60
2022-11-18T22:08:56.607Z,5.67
2022-11-18T22:11:24.120Z,4.73
2022-11-18T22:13:51.934Z,4.83
2022-11-18T22:16:20.328Z,4.00
2022-11-18T22:18:53.094Z,4.17
2022-11-18T22:21:21.690Z,3.53
2022-11-18T22:23:48.369Z,3.77
2022-11-18T22:26:17.998Z,3.73
2022-11-18T22:28:45.110Z,4.40
2022-11-18T22:31:17.169Z,3.93
2022-11-18T22:33:43.669Z,3.67
2022-11-18T22:36:15.268Z,4.73
2022-11-18T22:38:43.381Z,4.33
2022-11-18T22:41:30.811Z,4.50
2022-11-18T22:43:59.467Z,4.67
2022-11-18T22:46:29.214Z,4.10
2022-11-18T22:48:56.696Z,7.70
2022-11-18T22:51:23.456Z,5.47
2022-11-18T22:53:56.561Z,4.80
2022-11-18T22:56:31.098Z,5.50
2022-11-18T22:58:57.652Z,6.70
2022-11-18T23:01:24.436Z,5.50
2022-11-18T23:03:52.904Z,6.17
2022-11-18T23:06:19.543Z,6.67
2022-11-18T23:08:47.279Z,6.63
2022-11-18T23:11:36.104Z,6.07
2022-11-18T23:14:04.641Z,5.67
2022-11-18T23:16:33.033Z,6.33
2022-11-18T23:19:00.884Z,7.67
2022-11-18T23:21:27.374Z,6.60
2022-11-18T23:23:53.916Z,8.20
2022-11-18T23:26:20.711Z,7.70
2022-11-18T23:28:47.188Z,7.53
2022-11-18T23:31:19.415Z,8.07
2022-11-18T23:33:46.371Z,7.60
2022-11-18T23:36:15.603Z,7.40
2022-11-18T23:38:42.367Z,7.63
2022-11-18T23:41:11.157Z,7.27
2022-11-18T23:43:38.408Z,7.47
2022-11-18T23:46:06.241Z,7.30
2022-11-18T23:48:37.449Z,6.47
2022-11-18T23:51:09.332Z,8.00
2022-11-18T23:53:36.419Z,8.10
2022-11-18T23:56:06.048Z,9.03
2022-11-18T23:58:32.686Z,8.83
